Time;durP1;ratioP1;P1;durP2;ratioP2;P2;SDS_P1;SDS_P2;PMS_P1;PMS_P2;Temp;Humidity;BMP_temperature;BMP_pressure;BME280_temperature;BME280_humidity;BME280_pressure;Samples;Min_cycle;Max_cycle;Signal;HPM_P1;HPM_P2
2022/02/28 00:02:03;;;;;;;17.93;8.07;;;;;;;0.14;100.00;103099.69;5051617;28;20074;-90
2022/02/28 00:04:29;;;;;;;14.27;6.15;;;;;;;0.24;100.00;103124.84;5035468;28;20299;-91
2022/02/28 00:06:54;;;;;;;17.25;6.80;;;;;;;0.16;100.00;103116.28;5052047;28;20596;-91
2022/02/28 00:09:21;;;;;;;17.02;6.93;;;;;;;0.11;100.00;103118.16;5040326;28;20041;-91
2022/02/28 00:11:47;;;;;;;17.83;7.50;;;;;;;0.10;100.00;103112.03;5021084;28;20048;-91
2022/02/28 00:14:12;;;;;;;17.77;6.55;;;;;;;0.11;100.00;103120.78;5052258;28;20067;-90
2022/02/28 00:16:39;;;;;;;14.57;7.15;;;;;;;0.15;100.00;103125.06;5056049;28;20474;-90
2022/02/28 00:19:05;;;;;;;12.57;7.00;;;;;;;0.02;100.00;103115.75;5056515;28;20033;-91
2022/02/28 00:21:30;;;;;;;14.10;6.18;;;;;;;0.12;100.00;103126.00;5057946;28;20120;-91
2022/02/28 00:23:58;;;;;;;16.02;6.85;;;;;;;0.15;100.00;103136.44;5068233;28;20033;-91
2022/02/28 00:26:24;;;;;;;14.27;6.53;;;;;;;0.13;100.00;103126.88;5042451;28;20021;-91
2022/02/28 00:28:49;;;;;;;12.73;5.30;;;;;;;0.03;100.00;103120.13;5040843;28;20128;-93
2022/02/28 00:31:15;;;;;;;13.48;6.38;;;;;;;0.11;100.00;103123.41;5051889;28;20087;-92
2022/02/28 00:33:43;;;;;;;13.48;6.88;;;;;;;0.05;100.00;103118.28;5041483;28;20491;-91
2022/02/28 00:36:09;;;;;;;13.18;6.57;;;;;;;0.06;100.00;103109.53;5022629;28;20033;-90
2022/02/28 00:38:34;;;;;;;15.38;5.88;;;;;;;0.14;100.00;103123.31;5055335;28;20385;-91
2022/02/28 00:41:00;;;;;;;19.67;6.47;;;;;;;-0.03;100.00;103119.34;5055483;28;20542;-91
2022/02/28 00:43:26;;;;;;;21.77;5.93;;;;;;;0.01;100.00;103116.66;5038814;28;20032;-91
2022/02/28 00:45:53;;;;;;;13.80;5.53;;;;;;;0.01;100.00;103116.66;5039003;28;20115;-91
2022/02/28 00:48:18;;;;;;;13.98;5.72;;;;;;;0.03;100.00;103120.97;5055127;28;20065;-90
2022/02/28 00:50:44;;;;;;;13.63;6.28;;;;;;;-0.08;100.00;103118.59;5038300;28;20024;-90
2022/02/28 00:53:10;;;;;;;20.52;7.40;;;;;;;-0.06;100.00;103121.19;5054840;28;20058;-90
2022/02/28 00:55:35;;;;;;;12.25;6.63;;;;;;;-0.11;100.00;103121.28;5054423;28;20033;-91
2022/02/28 00:58:01;;;;;;;16.10;6.32;;;;;;;-0.22;100.00;103097.88;5038515;28;20045;-91
2022/02/28 01:00:27;;;;;;;11.98;6.25;;;;;;;-0.18;100.00;103111.81;5054320;28;20064;-91
2022/02/28 01:02:53;;;;;;;21.25;7.15;;;;;;;-0.22;100.00;103108.38;5054821;28;20061;-91
2022/02/28 01:05:22;;;;;;;15.10;7.03;;;;;;;-0.20;100.00;103099.63;5037863;28;20305;-90
2022/02/28 01:07:50;;;;;;;18.27;6.10;;;;;;;-0.26;100.00;103090.13;5037650;28;20024;-90
2022/02/28 01:10:18;;;;;;;16.23;7.03;;;;;;;-0.25;100.00;103092.72;5037506;28;20071;-91
2022/02/28 01:12:44;;;;;;;15.75;7.18;;;;;;;-0.24;100.00;103096.19;5038663;28;20052;-90
2022/02/28 01:15:11;;;;;;;19.75;7.35;;;;;;;-0.29;100.00;103100.69;5037545;28;20493;-90
2022/02/28 01:17:37;;;;;;;14.90;7.13;;;;;;;-0.34;100.00;103081.56;5053933;28;20033;-91
2022/02/28 01:20:05;;;;;;;20.13;7.03;;;;;;;-0.32;100.00;103082.41;5054090;28;20025;-91
2022/02/28 01:22:30;;;;;;;20.95;8.10;;;;;;;-0.18;100.00;103098.69;5054143;28;20043;-90
2022/02/28 01:24:56;;;;;;;17.45;6.90;;;;;;;-0.22;100.00;103091.78;5053858;28;20021;-90
2022/02/28 01:27:22;;;;;;;12.38;6.20;;;;;;;-0.23;100.00;103092.69;5053404;28;20054;-90
2022/02/28 01:29:48;;;;;;;15.02;6.47;;;;;;;-0.31;100.00;103069.22;5054177;28;20029;-91
2022/02/28 01:32:14;;;;;;;15.55;7.80;;;;;;;-0.10;100.00;103103.75;5054365;28;20037;-92
2022/02/28 01:34:40;;;;;;;;;;;;;;;-0.19;100.00;103096.94;5054413;28;20512;-91
2022/02/28 01:37:05;;;;;;;13.07;6.15;;;;;;;-0.26;100.00;103085.75;5037545;28;19917;-91
2022/02/28 01:39:30;;;;;;;15.15;6.90;;;;;;;-0.32;100.00;103075.38;5021228;28;20032;-91
2022/02/28 01:41:56;;;;;;;16.02;6.60;;;;;;;-0.20;100.00;103084.75;5054224;28;20033;-90
2022/02/28 01:44:22;;;;;;;15.70;7.45;;;;;;;-0.28;100.00;103070.91;5054115;28;20062;-91
2022/02/28 01:46:47;;;;;;;14.45;7.55;;;;;;;-0.30;100.00;103070.97;5053984;28;20041;-91
2022/02/28 01:49:13;;;;;;;18.15;7.63;;;;;;;-0.25;100.00;103083.97;5036567;28;20032;-91
2022/02/28 01:51:39;;;;;;;14.30;6.65;;;;;;;-0.15;100.00;103093.38;5053751;28;20032;-91
2022/02/28 01:54:06;;;;;;;15.35;6.78;;;;;;;-0.20;100.00;103084.75;5053386;28;20021;-91
2022/02/28 01:56:32;;;;;;;19.23;7.38;;;;;;;-0.15;100.00;103087.25;5053747;28;20055;-90
2022/02/28 01:58:58;;;;;;;20.33;7.28;;;;;;;-0.22;100.00;103099.66;5053286;28;20048;-91
2022/02/28 02:01:23;;;;;;;16.80;7.35;;;;;;;-0.33;100.00;103080.66;5053365;28;20489;-91
2022/02/28 02:03:49;;;;;;;14.90;6.63;;;;;;;-0.32;100.00;103088.50;5053524;28;20029;-90
2022/02/28 02:06:14;;;;;;;15.60;7.05;;;;;;;-0.36;100.00;103089.47;5054078;28;20040;-91
2022/02/28 02:08:41;;;;;;;;;;;;;;;-0.28;100.00;103092.78;5037170;28;20051;-91
2022/02/28 02:11:06;;;;;;;19.58;6.90;;;;;;;-0.36;100.00;103086.00;5053266;28;19912;-91
2022/02/28 02:13:33;;;;;;;14.73;6.53;;;;;;;-0.43;100.00;103082.63;5052928;28;20103;-91
2022/02/28 02:15:59;;;;;;;13.63;7.20;;;;;;;-0.49;100.00;103080.16;5075489;28;20029;-93
2022/02/28 02:18:25;;;;;;;16.60;7.07;;;;;;;-0.49;100.00;103081.00;5077279;28;20035;-90
2022/02/28 02:20:51;;;;;;;13.38;7.22;;;;;;;-0.46;100.00;103093.22;5053713;28;20048;-91
2022/02/28 02:23:17;;;;;;;19.13;7.00;;;;;;;-0.54;100.00;103082.88;5019756;28;20025;-89
2022/02/28 02:25:43;;;;;;;18.30;7.13;;;;;;;-0.58;100.00;103081.22;5038048;28;20123;-90
2022/02/28 02:28:15;;;;;;;18.30;6.25;;;;;;;-0.72;100.00;103059.66;5054031;28;20029;-90
2022/02/28 02:30:46;;;;;;;16.98;7.00;;;;;;;-0.68;100.00;103077.94;5053465;28;20035;-91
2022/02/28 02:33:13;;;;;;;16.25;7.32;;;;;;;-0.80;100.00;103061.56;5025050;28;20041;-90
2022/02/28 02:35:45;;;;;;;21.05;7.15;;;;;;;-0.69;100.00;103080.56;5039840;28;20047;-91
2022/02/28 02:38:10;;;;;;;20.17;6.65;;;;;;;-0.57;100.00;103093.44;5016790;28;20040;-91
2022/02/28 02:40:38;;;;;;;21.75;7.28;;;;;;;-0.76;100.00;103060.63;5033501;28;20397;-91
2022/02/28 02:43:04;;;;;;;19.83;6.47;;;;;;;-0.67;100.00;103076.16;5034677;28;20037;-91
2022/02/28 02:45:29;;;;;;;21.27;9.60;;;;;;;-0.72;100.00;103067.53;5035470;28;20021;-90
2022/02/28 02:47:55;;;;;;;20.10;7.68;;;;;;;-0.73;100.00;103076.28;5035694;28;20452;-90
2022/02/28 02:50:20;;;;;;;17.85;7.25;;;;;;;-0.72;100.00;103068.41;5037092;28;20029;-90
2022/02/28 02:52:48;;;;;;;16.60;7.10;;;;;;;-0.69;100.00;103083.19;5021783;28;20041;-90
2022/02/28 02:55:13;;;;;;;18.27;6.53;;;;;;;-0.71;100.00;103069.25;5006615;28;20029;-92
2022/02/28 02:57:39;;;;;;;19.58;7.10;;;;;;;-0.71;100.00;103077.97;5040183;28;20456;-90
2022/02/28 03:00:08;;;;;;;21.07;6.47;;;;;;;-0.76;100.00;103064.09;5023753;28;20021;-92
2022/02/28 03:02:43;;;;;;;16.77;7.35;;;;;;;-0.67;100.00;103077.03;5035049;28;20625;-89
2022/02/28 03:05:09;;;;;;;19.80;8.35;;;;;;;-0.65;100.00;103072.59;5033696;28;20037;-90
2022/02/28 03:07:35;;;;;;;20.13;6.80;;;;;;;-0.78;100.00;103065.88;5033054;28;20379;-91
2022/02/28 03:10:01;;;;;;;20.52;7.10;;;;;;;-0.80;100.00;103051.94;5032112;28;20473;-91
2022/02/28 03:12:26;;;;;;;15.45;7.15;;;;;;;-0.76;100.00;103053.59;4999596;28;20117;-90
2022/02/28 03:14:54;;;;;;;17.13;7.63;;;;;;;-0.73;100.00;103050.91;5032909;28;20033;-90
2022/02/28 03:17:20;;;;;;;16.45;6.82;;;;;;;-0.69;100.00;103051.72;5032343;28;20032;-90
2022/02/28 03:19:45;;;;;;;19.25;7.50;;;;;;;-0.80;100.00;103046.69;5032073;28;20044;-90
2022/02/28 03:22:11;;;;;;;18.38;8.18;;;;;;;-0.82;100.00;103039.75;5000114;28;20033;-90
2022/02/28 03:24:42;;;;;;;12.23;7.05;;;;;;;-0.83;100.00;103038.03;5031252;28;20053;-90
2022/02/28 03:27:07;;;;;;;16.90;7.35;;;;;;;-0.88;100.00;103040.75;5032296;28;20051;-91
2022/02/28 03:29:33;;;;;;;21.73;9.15;;;;;;;-0.89;100.00;103045.16;5032514;28;20111;-90
2022/02/28 03:31:58;;;;;;;20.63;7.53;;;;;;;-0.87;100.00;103039.84;5016604;28;20040;-90
2022/02/28 03:34:24;;;;;;;21.58;7.65;;;;;;;-0.91;100.00;103032.97;5039516;28;20033;-90
2022/02/28 03:36:50;;;;;;;18.50;8.05;;;;;;;-0.82;100.00;103042.38;5033469;28;20559;-90
2022/02/28 03:39:16;;;;;;;16.40;7.40;;;;;;;-0.91;100.00;103023.34;5016729;28;20033;-91
2022/02/28 03:41:42;;;;;;;19.73;8.52;;;;;;;-0.89;100.00;103032.03;5038348;28;20041;-92
2022/02/28 03:44:08;;;;;;;15.23;7.75;;;;;;;-0.85;100.00;103036.28;5057235;22;20051;-76
2022/02/28 03:46:37;;;;;;;13.10;6.93;;;;;;;-0.87;100.00;103035.50;5078434;28;20119;-77
2022/02/28 03:49:16;;;;;;;17.02;7.70;;;;;;;-0.83;100.00;103032.78;5048623;28;20036;-77
2022/02/28 03:51:47;;;;;;;21.52;8.40;;;;;;;-0.86;100.00;103028.47;5048897;28;20052;-76
2022/02/28 03:54:33;;;;;;;;;;;;;;;-0.81;100.00;103026.63;5035472;28;20112;-77
2022/02/28 03:56:58;;;;;;;20.30;7.55;;;;;;;-0.86;100.00;103029.34;5049446;28;20007;-76
2022/02/28 03:59:24;;;;;;;21.15;7.57;;;;;;;-0.93;100.00;103022.50;5032472;28;20138;-77
2022/02/28 04:01:49;;;;;;;17.27;8.65;;;;;;;-0.92;100.00;103018.09;5049659;28;20033;-75
2022/02/28 04:04:28;;;;;;;19.73;9.50;;;;;;;-0.91;100.00;103025.09;5034778;28;20477;-76
2022/02/28 04:06:53;;;;;;;19.45;7.32;;;;;;;-1.02;100.00;103013.97;5050753;28;20056;-75
2022/02/28 04:09:20;;;;;;;25.10;9.98;;;;;;;-0.98;100.00;103021.75;5032530;28;20033;-75
2022/02/28 04:11:46;;;;;;;15.57;8.05;;;;;;;-0.98;100.00;103024.38;5049354;28;20074;-76
2022/02/28 04:14:11;;;;;;;18.83;8.00;;;;;;;-1.00;100.00;103010.41;5049282;28;20017;-76
2022/02/28 04:16:37;;;;;;;18.80;8.48;;;;;;;-1.00;100.00;103005.16;5049468;28;20831;-76
2022/02/28 04:19:40;;;;;;;20.65;7.70;;;;;;;-0.97;100.00;103010.34;5049415;28;20036;-75
2022/02/28 04:22:06;;;;;;;;;;;;;;;-0.98;100.00;103008.63;5049774;28;20469;-75
2022/02/28 04:24:35;;;;;;;21.00;8.45;;;;;;;-1.03;100.00;103010.50;5049386;28;20270;-76
2022/02/28 04:27:01;;;;;;;25.95;9.35;;;;;;;-0.98;100.00;103003.38;5032698;28;20132;-76
2022/02/28 04:29:27;;;;;;;16.90;7.05;;;;;;;-1.06;100.00;102995.66;5032528;28;20478;-76
2022/02/28 04:32:01;;;;;;;17.42;8.07;;;;;;;-1.15;100.00;102995.00;5049277;28;20043;-75
2022/02/28 04:34:28;;;;;;;18.40;8.02;;;;;;;-1.25;100.00;102993.47;5032630;28;20043;-76
2022/02/28 04:36:53;;;;;;;16.63;7.83;;;;;;;-1.33;100.00;102984.00;5049352;28;20024;-76
2022/02/28 04:39:19;;;;;;;18.15;8.98;;;;;;;-1.40;100.00;102985.03;5032491;28;20067;-76
2022/02/28 04:41:44;;;;;;;23.95;9.15;;;;;;;-1.28;100.00;102994.38;5033019;28;20053;-75
2022/02/28 04:44:10;;;;;;;22.70;9.30;;;;;;;-1.21;100.00;102997.75;5049096;28;20043;-76
2022/02/28 04:46:35;;;;;;;20.65;8.80;;;;;;;-1.34;100.00;102995.34;5032684;28;20120;-76
2022/02/28 04:49:18;;;;;;;20.58;8.65;;;;;;;-1.35;100.00;102988.41;5034805;28;20043;-76
2022/02/28 04:51:54;;;;;;;;;;;;;;;-1.37;100.00;102984.94;5049883;28;20238;-75
2022/02/28 04:54:20;;;;;;;25.70;10.77;;;;;;;-1.54;100.00;102981.81;5048715;28;20312;-76
2022/02/28 04:56:45;;;;;;;16.42;7.55;;;;;;;-1.62;100.00;102981.06;5032475;28;20044;-76
2022/02/28 04:59:11;;;;;;;24.75;10.77;;;;;;;-1.70;100.00;102979.47;5032254;28;20056;-76
2022/02/28 05:01:39;;;;;;;20.75;8.93;;;;;;;-1.76;100.00;102966.47;5050828;28;20470;-76
2022/02/28 05:04:34;;;;;;;21.92;10.38;;;;;;;-1.74;100.00;102980.41;5039680;28;20064;-76
2022/02/28 05:06:59;;;;;;;21.55;10.15;;;;;;;-1.56;100.00;102994.94;5036037;28;20064;-76
2022/02/28 05:09:24;;;;;;;22.42;10.82;;;;;;;-1.50;100.00;102994.81;5051990;28;20071;-76
2022/02/28 05:11:50;;;;;;;23.95;9.77;;;;;;;-1.47;100.00;102993.91;5035974;28;20398;-76
2022/02/28 05:14:15;;;;;;;21.35;9.77;;;;;;;-1.36;100.00;102996.28;5035588;28;20501;-76
2022/02/28 05:16:42;;;;;;;24.15;10.75;;;;;;;-1.42;100.00;102996.44;5052362;28;20029;-75
2022/02/28 05:19:08;;;;;;;24.95;9.65;;;;;;;-1.56;100.00;102988.84;5051800;28;20439;-74
2022/02/28 05:21:34;;;;;;;23.15;9.63;;;;;;;-1.56;100.00;102999.31;5052233;28;20041;-75
2022/02/28 05:24:01;;;;;;;24.83;10.40;;;;;;;-1.55;100.00;103008.88;5051748;28;20025;-75
2022/02/28 05:26:27;;;;;;;20.45;9.55;;;;;;;-1.56;100.00;102994.06;5052326;28;20036;-76
2022/02/28 05:28:52;;;;;;;20.90;9.35;;;;;;;-1.60;100.00;103006.34;5051804;28;20052;-75
2022/02/28 05:31:18;;;;;;;24.50;10.60;;;;;;;-1.57;100.00;103005.41;5035447;28;20387;-75
2022/02/28 05:33:47;;;;;;;23.90;10.15;;;;;;;-1.59;100.00;102999.34;5050945;28;20021;-76
2022/02/28 05:36:14;;;;;;;25.70;10.10;;;;;;;-1.61;100.00;102996.78;5051550;28;20029;-75
2022/02/28 05:38:44;;;;;;;23.38;10.63;;;;;;;-1.57;100.00;103006.31;5054583;28;20025;-75
2022/02/28 05:41:12;;;;;;;21.40;9.77;;;;;;;-1.53;100.00;103001.88;5054724;28;20374;-75
2022/02/28 05:43:45;;;;;;;23.48;10.80;;;;;;;-1.61;100.00;103006.41;5054673;28;20355;-76
2022/02/28 05:46:11;;;;;;;31.05;12.73;;;;;;;-1.63;100.00;103003.78;5054462;28;20043;-76
2022/02/28 05:48:55;;;;;;;23.75;10.48;;;;;;;-1.70;100.00;103002.19;5057397;28;20357;-76
2022/02/28 05:51:26;;;;;;;24.65;8.77;;;;;;;-1.78;100.00;102993.59;5054390;28;20647;-75
2022/02/28 05:53:52;;;;;;;27.73;11.67;;;;;;;-1.70;100.00;103008.28;5054318;28;20047;-76
2022/02/28 05:56:18;;;;;;;28.88;11.00;;;;;;;-1.70;100.00;103016.13;5054238;28;20763;-76
2022/02/28 05:58:43;;;;;;;24.92;11.30;;;;;;;-1.83;100.00;103005.91;5054218;28;20044;-75
2022/02/28 06:01:09;;;;;;;22.55;11.30;;;;;;;-1.78;100.00;102999.72;5054162;28;20035;-76
2022/02/28 06:03:34;;;;;;;23.52;11.80;;;;;;;-1.83;100.00;103006.75;5071196;28;20036;-76
2022/02/28 06:06:00;;;;;;;28.20;10.80;;;;;;;-1.88;100.00;103013.84;5070752;28;20016;-75
2022/02/28 06:08:26;;;;;;;26.77;11.57;;;;;;;-1.78;100.00;103023.28;5037537;28;20036;-75
2022/02/28 06:10:52;;;;;;;22.90;10.90;;;;;;;-1.87;100.00;103010.34;5053912;28;20032;-77
2022/02/28 06:13:17;;;;;;;26.08;13.05;;;;;;;-1.89;100.00;103021.75;5053703;28;20032;-74
2022/02/28 06:15:43;;;;;;;28.00;11.75;;;;;;;-1.87;100.00;103012.97;5053936;28;20077;-75
2022/02/28 06:18:12;;;;;;;28.75;12.18;;;;;;;-1.82;100.00;103013.75;5053901;28;20035;-75
2022/02/28 06:20:39;;;;;;;31.45;12.48;;;;;;;-1.78;100.00;103025.00;5053548;28;20047;-75
2022/02/28 06:23:05;;;;;;;25.17;10.80;;;;;;;-1.76;100.00;103018.00;5053946;28;20038;-76
2022/02/28 06:25:30;;;;;;;25.73;10.77;;;;;;;-1.80;100.00;103022.44;5053796;28;20111;-76
2022/02/28 06:27:56;;;;;;;24.42;11.20;;;;;;;-1.79;100.00;103023.28;5054001;28;20040;-75
2022/02/28 06:30:22;;;;;;;31.17;11.18;;;;;;;-1.82;100.00;103018.97;5071432;28;20466;-76
2022/02/28 06:32:48;;;;;;;27.92;11.35;;;;;;;-1.76;100.00;103018.84;5053821;28;20047;-76
2022/02/28 06:35:13;;;;;;;23.10;11.00;;;;;;;-1.76;100.00;103018.84;5053540;28;20024;-75
2022/02/28 06:37:39;;;;;;;24.08;10.75;;;;;;;-1.70;100.00;103020.53;5053687;28;20070;-75
2022/02/28 06:40:05;;;;;;;22.80;10.85;;;;;;;-1.64;100.00;103012.56;5053532;28;20375;-75
2022/02/28 06:42:31;;;;;;;26.02;11.48;;;;;;;-1.57;100.00;103021.13;5052959;28;20048;-75
2022/02/28 06:44:56;;;;;;;22.15;10.95;;;;;;;-1.60;100.00;103021.22;5053116;28;20025;-75
2022/02/28 06:47:22;;;;;;;25.63;12.30;;;;;;;-1.60;100.00;103013.34;5053567;28;20038;-76
2022/02/28 06:49:47;;;;;;;24.85;10.63;;;;;;;-1.55;100.00;103006.25;5036777;28;20016;-76
2022/02/28 06:52:12;;;;;;;28.67;12.13;;;;;;;-1.56;100.00;102994.94;5053834;28;20123;-76
2022/02/28 06:54:38;;;;;;;26.25;11.48;;;;;;;-1.52;100.00;102999.22;5071392;28;20687;-76
2022/02/28 06:57:04;;;;;;;24.85;12.13;;;;;;;-1.42;100.00;103012.16;5053562;28;20400;-75
2022/02/28 06:59:29;;;;;;;22.13;11.18;;;;;;;-1.41;100.00;102988.50;5053366;28;20032;-76
2022/02/28 07:01:56;;;;;;;27.52;11.48;;;;;;;-1.31;100.00;103000.56;5053578;28;20078;-76
2022/02/28 07:04:28;;;;;;;24.60;11.82;;;;;;;-1.14;100.00;103004.59;5054398;28;20482;-77
2022/02/28 07:06:54;;;;;;;21.38;10.65;;;;;;;-0.87;100.00;103001.41;5053445;28;20064;-75
2022/02/28 07:09:19;;;;;;;23.20;11.60;;;;;;;-0.68;100.00;102995.72;5053217;28;20031;-76
2022/02/28 07:11:45;;;;;;;26.15;11.15;;;;;;;-0.52;100.00;102986.59;5053509;28;20036;-75
2022/02/28 07:14:10;;;;;;;21.13;10.25;;;;;;;-0.19;100.00;102981.41;5036377;28;20032;-75
2022/02/28 07:16:36;;;;;;;28.50;11.63;;;;;;;-0.20;100.00;102963.09;5053403;28;20036;-75
2022/02/28 07:19:02;;;;;;;21.10;10.35;;;;;;;0.11;100.00;102964.03;5052815;28;20067;-76
2022/02/28 07:21:28;;;;;;;24.40;10.38;;;;;;;0.18;100.00;102947.19;5069706;28;20413;-76
2022/02/28 07:23:57;;;;;;;24.93;10.00;;;;;;;0.25;100.00;102939.16;5070258;28;20020;-75
2022/02/28 07:26:22;;;;;;;22.77;10.88;;;;;;;0.37;100.00;102939.66;5070611;28;20032;-75
2022/02/28 07:28:48;;;;;;;24.05;12.75;;;;;;;0.38;100.00;102932.66;5052930;28;20058;-76
2022/02/28 07:31:13;;;;;;;22.77;11.48;;;;;;;0.54;100.00;102925.19;5052954;28;20044;-75
2022/02/28 07:33:38;;;;;;;27.93;12.00;;;;;;;0.71;100.00;102928.19;5036377;28;20020;-75
2022/02/28 07:36:06;;;;;;;20.33;11.83;;;;;;;1.24;100.00;102925.69;5052978;28;20037;-75
2022/02/28 07:38:33;;;;;;;27.80;11.45;;;;;;;1.11;100.00;102908.56;5053014;28;20117;-76
2022/02/28 07:40:58;;;;;;;25.52;10.23;;;;;;;1.62;100.00;102910.41;5052662;28;20048;-76
2022/02/28 07:43:24;;;;;;;24.88;10.45;;;;;;;2.03;99.13;102889.66;5069735;28;20465;-75
2022/02/28 07:45:49;;;;;;;22.47;10.80;;;;;;;1.77;96.76;102852.84;5052553;28;20032;-76
2022/02/28 07:48:15;;;;;;;20.43;10.77;;;;;;;1.67;95.59;102844.44;5053064;28;20362;-75
2022/02/28 07:50:40;;;;;;;21.73;9.88;;;;;;;2.33;94.22;102855.22;5035652;28;20032;-75
2022/02/28 07:53:06;;;;;;;20.87;10.73;;;;;;;2.00;92.43;102809.88;5069585;28;20067;-76
2022/02/28 07:55:31;;;;;;;23.25;12.88;;;;;;;2.34;91.34;102809.47;5070540;28;20039;-76
2022/02/28 07:57:57;;;;;;;23.60;9.70;;;;;;;2.35;89.86;102782.19;5052966;28;20028;-75
2022/02/28 08:00:22;;;;;;;27.07;11.83;;;;;;;2.70;88.95;102788.72;5052531;28;20048;-75
2022/02/28 08:02:47;;;;;;;26.87;11.00;;;;;;;2.52;87.68;102756.03;5035996;28;20029;-75
2022/02/28 08:05:13;;;;;;;26.83;12.30;;;;;;;2.27;86.61;102718.38;5035934;28;20032;-75
2022/02/28 08:07:40;;;;;;;22.67;10.50;;;;;;;2.73;86.44;102743.75;5052884;28;20024;-75
2022/02/28 08:10:06;;;;;;;24.98;11.52;;;;;;;2.61;85.19;102707.34;5069099;28;20068;-74
2022/02/28 08:12:31;;;;;;;;;;;;;;;2.83;84.92;102738.09;5053186;28;20020;-75
2022/02/28 08:14:57;;;;;;;29.92;12.02;;;;;;;3.24;85.76;102780.38;5035820;28;19917;-75
2022/02/28 08:17:22;;;;;;;20.97;11.23;;;;;;;2.59;83.79;102682.81;5052700;28;20052;-75
2022/02/28 08:19:48;;;;;;;22.92;11.35;;;;;;;2.54;84.04;102706.72;5070099;28;20068;-76
2022/02/28 08:22:13;;;;;;;27.80;13.63;;;;;;;2.51;83.71;102690.19;5070703;28;20039;-75
2022/02/28 08:24:38;;;;;;;18.98;9.85;;;;;;;2.96;83.22;102711.13;5052416;28;20040;-75
2022/02/28 08:27:04;;;;;;;22.57;11.80;;;;;;;3.67;81.86;102704.53;5052748;28;20025;-75
2022/02/28 08:29:29;;;;;;;22.67;11.80;;;;;;;2.74;81.51;102618.03;5052095;28;20036;-76
2022/02/28 08:31:54;;;;;;;23.60;10.97;;;;;;;3.40;80.90;102667.91;5052539;28;20081;-75
2022/02/28 08:34:20;;;;;;;22.90;12.10;;;;;;;4.02;80.12;102685.25;5052016;28;20190;-75
2022/02/28 08:36:45;;;;;;;25.95;12.15;;;;;;;3.80;78.92;102622.00;5055839;28;20039;-75
2022/02/28 08:39:11;;;;;;;24.40;11.50;;;;;;;4.83;77.15;102629.28;5055945;28;20489;-76
2022/02/28 08:41:36;;;;;;;21.63;11.13;;;;;;;3.76;76.20;102513.91;5056438;28;20032;-75
2022/02/28 08:44:02;;;;;;;21.10;10.63;;;;;;;5.51;75.87;102642.47;5073789;28;20032;-75
2022/02/28 08:46:29;;;;;;;26.05;10.82;;;;;;;6.34;72.08;102532.63;5056447;28;20052;-75
2022/02/28 08:48:54;;;;;;;21.73;11.33;;;;;;;5.55;70.23;102394.97;5055936;28;20462;-74
2022/02/28 08:51:20;;;;;;;20.40;10.20;;;;;;;5.57;69.53;102394.84;5039382;28;20039;-76
2022/02/28 08:53:45;;;;;;;26.05;14.27;;;;;;;5.14;68.73;102289.63;5056002;28;20119;-75
2022/02/28 08:56:10;;;;;;;22.50;11.63;;;;;;;4.29;70.45;102353.50;5055937;28;20108;-74
2022/02/28 08:58:36;;;;;;;21.30;11.67;;;;;;;4.55;71.13;102426.16;5055716;28;20109;-75
2022/02/28 09:01:02;;;;;;;20.73;11.98;;;;;;;5.12;70.86;102523.66;5055698;28;20107;-75
2022/02/28 09:03:28;;;;;;;26.13;12.32;;;;;;;5.67;69.57;102483.50;5073642;28;20028;-74
2022/02/28 09:05:53;;;;;;;29.15;12.05;;;;;;;6.24;68.06;102446.56;5073386;28;20078;-74
2022/02/28 09:08:18;;;;;;;22.37;11.60;;;;;;;5.18;68.11;102343.28;5073657;28;20033;-75
2022/02/28 09:10:44;;;;;;;24.83;13.93;;;;;;;5.06;68.92;102409.22;5054937;28;20024;-75
2022/02/28 09:13:09;;;;;;;23.33;11.53;;;;;;;5.15;69.61;102483.75;5055551;28;20032;-74
2022/02/28 09:15:37;;;;;;;22.37;12.27;;;;;;;5.84;67.74;102443.59;5055344;28;20119;-75
2022/02/28 09:18:07;;;;;;;24.83;13.30;;;;;;;4.70;68.01;102321.28;5055498;28;20279;-75
2022/02/28 09:20:33;;;;;;;22.10;11.73;;;;;;;5.83;67.72;102447.19;5055026;28;20123;-75
2022/02/28 09:22:59;;;;;;;24.83;12.73;;;;;;;5.29;67.62;102384.09;5072463;28;20071;-74
2022/02/28 09:25:24;;;;;;;22.53;13.20;;;;;;;5.69;67.95;102458.59;5055254;28;20063;-74
2022/02/28 09:27:50;;;;;;;28.67;16.50;;;;;;;6.14;66.43;102402.97;5073148;28;20029;-74
2022/02/28 09:30:16;;;;;;;36.42;17.65;;;;;;;5.92;65.32;102307.94;5071589;28;20040;-75
2022/02/28 09:32:48;;;;;;;28.35;15.23;;;;;;;7.13;64.68;102411.78;5055115;28;20033;-75
2022/02/28 09:35:13;;;;;;;25.25;13.52;;;;;;;6.86;63.44;102288.78;5054928;28;20041;-75
2022/02/28 09:37:39;;;;;;;23.33;12.68;;;;;;;6.20;63.47;102251.41;5055112;28;20025;-75
2022/02/28 09:40:06;;;;;;;20.50;11.73;;;;;;;6.58;62.89;102276.44;5072807;28;20488;-75
2022/02/28 09:42:38;;;;;;;24.58;13.63;;;;;;;6.61;63.06;102279.75;5071853;28;20021;-75
2022/02/28 09:45:25;;;;;;;26.15;12.63;;;;;;;6.42;62.12;102199.66;5057166;28;20098;-75
2022/02/28 09:48:11;;;;;;;25.00;12.35;;;;;;;5.50;64.49;102275.13;5057003;28;20039;-75
2022/02/28 09:50:55;;;;;;;25.15;13.23;;;;;;;6.16;65.09;102426.72;5057815;28;20628;-74
2022/02/28 09:53:38;;;;;;;25.63;12.73;;;;;;;6.59;63.44;102328.59;5072907;28;20079;-75
2022/02/28 09:56:20;;;;;;;20.00;11.82;;;;;;;6.82;61.93;102263.41;5064235;23;20060;-74
2022/02/28 09:59:04;;;;;;;25.50;13.07;;;;;;;6.65;62.48;102294.53;5041109;28;20772;-74
2022/02/28 10:01:29;;;;;;;22.67;12.73;;;;;;;7.34;61.10;102303.25;5071390;28;20032;-75
2022/02/28 10:03:55;;;;;;;20.47;11.40;;;;;;;7.49;60.75;102297.84;5054654;28;20062;-73
2022/02/28 10:06:22;;;;;;;19.90;12.35;;;;;;;6.30;61.18;102164.19;5067840;28;20029;-74
2022/02/28 10:08:50;;;;;;;24.88;13.45;;;;;;;6.81;61.74;102304.16;5052235;28;20033;-74
2022/02/28 10:11:29;;;;;;;21.83;12.82;;;;;;;7.11;61.09;102296.81;5052360;28;20469;-75
2022/02/28 10:14:02;;;;;;;21.55;12.02;;;;;;;6.40;61.42;102201.56;5034074;28;20036;-74
2022/02/28 10:16:31;;;;;;;22.30;12.57;;;;;;;6.18;61.43;102184.38;5052197;28;20037;-76
2022/02/28 10:18:56;;;;;;;22.45;11.82;;;;;;;6.23;63.06;102333.47;5051660;28;20029;-74
2022/02/28 10:22:15;;;;;;;21.55;12.25;;;;;;;6.51;62.22;102308.69;5067759;28;20090;-74
2022/02/28 10:24:42;;;;;;;21.40;11.70;;;;;;;7.01;61.09;102308.16;4954616;28;20081;-75
2022/02/28 10:27:18;;;;;;;19.23;10.95;;;;;;;6.93;61.52;102335.19;5051165;28;20048;-74
2022/02/28 10:30:02;;;;;;;18.70;11.70;;;;;;;6.04;61.00;102161.41;5031070;28;20409;-74
2022/02/28 10:32:57;;;;;;;18.15;11.10;;;;;;;5.79;61.49;102177.13;5014714;28;20096;-74
2022/02/28 10:36:01;;;;;;;18.48;9.95;;;;;;;6.76;61.83;102373.47;5017026;28;20449;-74
2022/02/28 10:38:47;;;;;;;;;;;;;;;6.56;60.32;102218.19;5022142;28;20044;-75
2022/02/28 10:41:25;;;;;;;17.90;10.02;;;;;;;6.59;60.41;102243.66;5031821;28;19975;-75
2022/02/28 10:43:53;;;;;;;17.75;10.40;;;;;;;6.65;60.65;102265.34;5030506;28;20504;-74
2022/02/28 10:46:39;;;;;;;23.58;11.93;;;;;;;5.45;60.68;102075.91;5030379;28;20029;-75
2022/02/28 10:49:07;;;;;;;;;;;;;;;6.53;61.96;102388.19;5032071;28;20474;-74
2022/02/28 10:51:45;;;;;;;21.10;9.90;;;;;;;5.93;61.25;102211.56;4997766;28;19909;-74
2022/02/28 10:54:13;;;;;;;18.27;8.82;;;;;;;6.80;60.77;102321.88;5013966;28;20040;-74
2022/02/28 10:56:49;;;;;;;17.25;9.43;;;;;;;6.36;59.96;102176.16;4997406;28;20558;-76
2022/02/28 10:59:17;;;;;;;16.67;9.75;;;;;;;6.84;59.82;102237.59;5013608;28;20052;-74
2022/02/28 11:01:45;;;;;;;14.80;9.30;;;;;;;7.29;59.45;102285.94;5014028;28;20021;-74
2022/02/28 11:04:11;;;;;;;16.75;8.57;;;;;;;7.19;59.59;102315.78;5031513;28;20502;-74
2022/02/28 11:06:37;;;;;;;17.98;10.00;;;;;;;6.09;59.14;102084.22;5013848;28;20113;-74
2022/02/28 11:09:04;;;;;;;17.13;9.50;;;;;;;6.47;59.88;102229.38;5030133;28;20041;-74
2022/02/28 11:11:31;;;;;;;15.43;9.07;;;;;;;7.72;58.22;102278.50;5030228;28;20107;-75
2022/02/28 11:13:57;;;;;;;300.90;91.03;;;;;;;7.50;58.44;102249.06;5031207;28;20040;-75
2022/02/28 11:16:22;;;;;;;67.07;24.88;;;;;;;7.00;59.25;102225.00;5030295;28;20052;-75
2022/02/28 11:18:50;;;;;;;253.73;84.40;;;;;;;8.45;58.98;102415.34;5031368;28;20076;-75